sensor_id;sensor_type;location;lat;lon;timestamp;pressure;altitude;pressure_sealevel;temperature;humidity
41202;BME280;26936;50.524;8.684;2023-08-20T00:00:24;99751.28;;;20.85;100.00
41202;BME280;26936;50.524;8.684;2023-08-20T00:02:51;99744.53;;;20.83;100.00
41202;BME280;26936;50.524;8.684;2023-08-20T00:05:20;99742.69;;;20.80;100.00
41202;BME280;26936;50.524;8.684;2023-08-20T00:07:45;99747.09;;;20.75;100.00
41202;BME280;26936;50.524;8.684;2023-08-20T00:10:11;99746.28;;;20.69;100.00
41202;BME280;26936;50.524;8.684;2023-08-20T00:12:36;99745.19;;;20.56;100.00
41202;BME280;26936;50.524;8.684;2023-08-20T00:15:04;99745.69;;;20.54;100.00
41202;BME280;26936;50.524;8.684;2023-08-20T00:17:33;99738.09;;;20.46;100.00
41202;BME280;26936;50.524;8.684;2023-08-20T00:19:59;99739.91;;;20.43;100.00
41202;BME280;26936;50.524;8.684;2023-08-20T00:22:24;99745.09;;;20.45;100.00
41202;BME280;26936;50.524;8.684;2023-08-20T00:24:51;99745.28;;;20.30;100.00
41202;BME280;26936;50.524;8.684;2023-08-20T00:27:17;99749.44;;;20.29;100.00
41202;BME280;26936;50.524;8.684;2023-08-20T00:29:42;99741.91;;;20.26;100.00
41202;BME280;26936;50.524;8.684;2023-08-20T00:32:07;99749.91;;;20.22;100.00
41202;BME280;26936;50.524;8.684;2023-08-20T00:34:33;99750.19;;;20.24;100.00
41202;BME280;26936;50.524;8.684;2023-08-20T00:36:58;99751.75;;;20.25;100.00
41202;BME280;26936;50.524;8.684;2023-08-20T00:39:23;99749.63;;;20.20;100.00
41202;BME280;26936;50.524;8.684;2023-08-20T00:41:49;99756.91;;;20.15;100.00
41202;BME280;26936;50.524;8.684;2023-08-20T00:44:14;99753.47;;;20.11;100.00
41202;BME280;26936;50.524;8.684;2023-08-20T00:46:39;99755.81;;;20.13;100.00
41202;BME280;26936;50.524;8.684;2023-08-20T00:49:05;99756.06;;;20.09;100.00
41202;BME280;26936;50.524;8.684;2023-08-20T00:51:32;99753.69;;;20.08;100.00
41202;BME280;26936;50.524;8.684;2023-08-20T00:53:59;99762.78;;;20.06;100.00
41202;BME280;26936;50.524;8.684;2023-08-20T00:56:24;99763.03;;;20.08;100.00
41202;BME280;26936;50.524;8.684;2023-08-20T00:58:50;99757.31;;;20.03;100.00
41202;BME280;26936;50.524;8.684;2023-08-20T01:01:15;99755.97;;;19.98;100.00
41202;BME280;26936;50.524;8.684;2023-08-20T01:03:40;99759.06;;;19.95;100.00
41202;BME280;26936;50.524;8.684;2023-08-20T01:06:14;99757.97;;;19.92;100.00
41202;BME280;26936;50.524;8.684;2023-08-20T01:08:47;99761.34;;;19.91;100.00
41202;BME280;26936;50.524;8.684;2023-08-20T01:11:17;99772.78;;;19.91;100.00
41202;BME280;26936;50.524;8.684;2023-08-20T01:13:45;99750.72;;;19.91;100.00
41202;BME280;26936;50.524;8.684;2023-08-20T01:16:11;99751.22;;;19.90;100.00
41202;BME280;26936;50.524;8.684;2023-08-20T01:18:36;99753.81;;;19.88;100.00
41202;BME280;26936;50.524;8.684;2023-08-20T01:21:06;99765.75;;;19.86;100.00
41202;BME280;26936;50.524;8.684;2023-08-20T01:23:48;99766.53;;;19.87;100.00
41202;BME280;26936;50.524;8.684;2023-08-20T01:28:56;99772.00;;;19.90;100.00
41202;BME280;26936;50.524;8.684;2023-08-20T01:31:22;99772.00;;;19.90;100.00
41202;BME280;26936;50.524;8.684;2023-08-20T01:33:48;99774.59;;;19.88;100.00
41202;BME280;26936;50.524;8.684;2023-08-20T01:36:14;99764.44;;;19.87;100.00
41202;BME280;26936;50.524;8.684;2023-08-20T01:38:39;99768.41;;;19.95;100.00
41202;BME280;26936;50.524;8.684;2023-08-20T01:41:04;99778.84;;;19.98;100.00
41202;BME280;26936;50.524;8.684;2023-08-20T01:43:30;99774.97;;;20.01;100.00
41202;BME280;26936;50.524;8.684;2023-08-20T01:45:55;99780.13;;;19.97;100.00
41202;BME280;26936;50.524;8.684;2023-08-20T01:48:20;99777.50;;;19.94;100.00
41202;BME280;26936;50.524;8.684;2023-08-20T01:50:45;99782.91;;;19.86;100.00
41202;BME280;26936;50.524;8.684;2023-08-20T01:53:11;99793.03;;;19.87;100.00
41202;BME280;26936;50.524;8.684;2023-08-20T01:55:36;99792.78;;;19.85;100.00
41202;BME280;26936;50.524;8.684;2023-08-20T01:58:02;99794.56;;;19.83;100.00
41202;BME280;26936;50.524;8.684;2023-08-20T02:00:27;99786.78;;;19.83;100.00
41202;BME280;26936;50.524;8.684;2023-08-20T02:02:53;99784.94;;;19.80;100.00
41202;BME280;26936;50.524;8.684;2023-08-20T02:05:19;99782.06;;;19.80;100.00
41202;BME280;26936;50.524;8.684;2023-08-20T02:07:44;99783.63;;;19.81;100.00
41202;BME280;26936;50.524;8.684;2023-08-20T02:10:09;99773.50;;;19.80;100.00
41202;BME280;26936;50.524;8.684;2023-08-20T02:12:35;99788.91;;;19.88;100.00
41202;BME280;26936;50.524;8.684;2023-08-20T02:15:01;99785.25;;;19.88;100.00
41202;BME280;26936;50.524;8.684;2023-08-20T02:17:27;99787.59;;;19.89;100.00
41202;BME280;26936;50.524;8.684;2023-08-20T02:19:52;99781.56;;;19.82;100.00
41202;BME280;26936;50.524;8.684;2023-08-20T02:22:17;99786.44;;;19.76;100.00
41202;BME280;26936;50.524;8.684;2023-08-20T02:24:44;99790.53;;;19.69;100.00
41202;BME280;26936;50.524;8.684;2023-08-20T02:27:09;99792.56;;;19.63;100.00
41202;BME280;26936;50.524;8.684;2023-08-20T02:29:34;99788.91;;;19.63;100.00
41202;BME280;26936;50.524;8.684;2023-08-20T02:32:00;99787.06;;;19.60;100.00
41202;BME280;26936;50.524;8.684;2023-08-20T02:34:25;99776.94;;;19.59;100.00
41202;BME280;26936;50.524;8.684;2023-08-20T02:36:50;99774.06;;;19.59;100.00
41202;BME280;26936;50.524;8.684;2023-08-20T02:39:16;99779.78;;;19.59;100.00
41202;BME280;26936;50.524;8.684;2023-08-20T02:41:42;99777.94;;;19.56;100.00
41202;BME280;26936;50.524;8.684;2023-08-20T02:44:07;99778.16;;;19.52;100.00
41202;BME280;26936;50.524;8.684;2023-08-20T02:46:32;99775.03;;;19.50;100.00
41202;BME280;26936;50.524;8.684;2023-08-20T02:48:58;99774.72;;;19.48;100.00
41202;BME280;26936;50.524;8.684;2023-08-20T02:51:23;99771.84;;;19.43;100.00
41202;BME280;26936;50.524;8.684;2023-08-20T02:53:48;99759.34;;;19.40;100.00
41202;BME280;26936;50.524;8.684;2023-08-20T02:56:14;99760.63;;;19.39;100.00
41202;BME280;26936;50.524;8.684;2023-08-20T02:58:39;99764.44;;;19.31;100.00
41202;BME280;26936;50.524;8.684;2023-08-20T03:01:05;99773.50;;;19.29;100.00
41202;BME280;26936;50.524;8.684;2023-08-20T03:03:30;99767.97;;;19.26;100.00
41202;BME280;26936;50.524;8.684;2023-08-20T03:05:56;99769.00;;;19.23;100.00
41202;BME280;26936;50.524;8.684;2023-08-20T03:08:21;99764.28;;;19.20;100.00
41202;BME280;26936;50.524;8.684;2023-08-20T03:10:46;99761.94;;;19.18;100.00
41202;BME280;26936;50.524;8.684;2023-08-20T03:13:11;99757.25;;;19.15;100.00
41202;BME280;26936;50.524;8.684;2023-08-20T03:15:37;99759.31;;;19.15;100.00
41202;BME280;26936;50.524;8.684;2023-08-20T03:18:03;99751.75;;;19.12;100.00
41202;BME280;26936;50.524;8.684;2023-08-20T03:20:28;99762.38;;;19.11;100.00
41202;BME280;26936;50.524;8.684;2023-08-20T03:22:56;99752.75;;;19.09;100.00
41202;BME280;26936;50.524;8.684;2023-08-20T03:25:21;99754.03;;;19.08;100.00
41202;BME280;26936;50.524;8.684;2023-08-20T03:27:46;99752.47;;;19.07;100.00
41202;BME280;26936;50.524;8.684;2023-08-20T03:30:12;99741.06;;;19.07;100.00
41202;BME280;26936;50.524;8.684;2023-08-20T03:32:37;99742.81;;;19.04;100.00
41202;BME280;26936;50.524;8.684;2023-08-20T03:35:03;99749.44;;;19.16;100.00
41202;BME280;26936;50.524;8.684;2023-08-20T03:37:29;99750.94;;;19.11;100.00
41202;BME280;26936;50.524;8.684;2023-08-20T03:39:54;99760.03;;;19.10;100.00
41202;BME280;26936;50.524;8.684;2023-08-20T03:42:19;99776.88;;;19.08;100.00
41202;BME280;26936;50.524;8.684;2023-08-20T03:44:45;99778.59;;;19.00;100.00
41202;BME280;26936;50.524;8.684;2023-08-20T03:47:10;99785.88;;;19.01;100.00
41202;BME280;26936;50.524;8.684;2023-08-20T03:49:35;99785.88;;;19.01;100.00
41202;BME280;26936;50.524;8.684;2023-08-20T03:52:01;99792.81;;;18.94;100.00
41202;BME280;26936;50.524;8.684;2023-08-20T03:54:28;99796.00;;;18.81;100.00
41202;BME280;26936;50.524;8.684;2023-08-20T03:56:54;99795.38;;;18.72;100.00
41202;BME280;26936;50.524;8.684;2023-08-20T03:59:19;99796.38;;;18.69;100.00
41202;BME280;26936;50.524;8.684;2023-08-20T04:01:44;99809.34;;;18.70;100.00
41202;BME280;26936;50.524;8.684;2023-08-20T04:04:09;99820.50;;;18.68;100.00
41202;BME280;26936;50.524;8.684;2023-08-20T04:06:35;99819.75;;;18.73;100.00
41202;BME280;26936;50.524;8.684;2023-08-20T04:09:00;99817.78;;;18.79;100.00
41202;BME280;26936;50.524;8.684;2023-08-20T04:11:25;99816.84;;;18.87;100.00
41202;BME280;26936;50.524;8.684;2023-08-20T04:13:50;99817.56;;;19.03;100.00
41202;BME280;26936;50.524;8.684;2023-08-20T04:16:16;99814.44;;;19.01;100.00
41202;BME280;26936;50.524;8.684;2023-08-20T04:18:41;99808.22;;;19.02;100.00
41202;BME280;26936;50.524;8.684;2023-08-20T04:21:06;99811.84;;;19.03;100.00
41202;BME280;26936;50.524;8.684;2023-08-20T04:23:32;99815.75;;;19.25;100.00
41202;BME280;26936;50.524;8.684;2023-08-20T04:25:57;99813.25;;;19.13;100.00
41202;BME280;26936;50.524;8.684;2023-08-20T04:28:23;99815.28;;;19.07;100.00
41202;BME280;26936;50.524;8.684;2023-08-20T04:30:52;99818.13;;;19.07;100.00
41202;BME280;26936;50.524;8.684;2023-08-20T04:33:19;99822.00;;;19.04;100.00
41202;BME280;26936;50.524;8.684;2023-08-20T04:35:44;99819.63;;;19.02;100.00
41202;BME280;26936;50.524;8.684;2023-08-20T04:38:09;99814.19;;;19.04;100.00
41202;BME280;26936;50.524;8.684;2023-08-20T04:40:34;99805.38;;;19.02;100.00
41202;BME280;26936;50.524;8.684;2023-08-20T04:43:00;99801.56;;;19.11;100.00
41202;BME280;26936;50.524;8.684;2023-08-20T04:45:25;99814.06;;;19.13;100.00
41202;BME280;26936;50.524;8.684;2023-08-20T04:47:50;99817.47;;;19.17;100.00
41202;BME280;26936;50.524;8.684;2023-08-20T04:50:16;99820.59;;;19.19;100.00
41202;BME280;26936;50.524;8.684;2023-08-20T04:52:41;99817.25;;;19.21;100.00
41202;BME280;26936;50.524;8.684;2023-08-20T04:55:07;99823.75;;;19.21;100.00
41202;BME280;26936;50.524;8.684;2023-08-20T04:57:33;99818.03;;;19.21;100.00
41202;BME280;26936;50.524;8.684;2023-08-20T04:59:58;99808.56;;;19.30;100.00
41202;BME280;26936;50.524;8.684;2023-08-20T05:02:24;99818.41;;;19.29;100.00
41202;BME280;26936;50.524;8.684;2023-08-20T05:04:49;99825.00;;;19.35;100.00
41202;BME280;26936;50.524;8.684;2023-08-20T05:07:15;99830.19;;;19.36;100.00
41202;BME280;26936;50.524;8.684;2023-08-20T05:09:40;99840.63;;;19.39;100.00
41202;BME280;26936;50.524;8.684;2023-08-20T05:12:06;99827.38;;;19.42;100.00
41202;BME280;26936;50.524;8.684;2023-08-20T05:14:31;99834.22;;;19.50;100.00
41202;BME280;26936;50.524;8.684;2023-08-20T05:16:56;99835.84;;;19.56;100.00
41202;BME280;26936;50.524;8.684;2023-08-20T05:19:22;99839.00;;;19.58;100.00
41202;BME280;26936;50.524;8.684;2023-08-20T05:21:47;99845.50;;;19.59;100.00
41202;BME280;26936;50.524;8.684;2023-08-20T05:24:12;99846.78;;;19.58;100.00
41202;BME280;26936;50.524;8.684;2023-08-20T05:26:37;99837.22;;;19.61;100.00
41202;BME280;26936;50.524;8.684;2023-08-20T05:29:03;99841.41;;;19.65;100.00
41202;BME280;26936;50.524;8.684;2023-08-20T05:31:28;99846.69;;;19.72;100.00
41202;BME280;26936;50.524;8.684;2023-08-20T05:33:53;99852.56;;;19.63;100.00
41202;BME280;26936;50.524;8.684;2023-08-20T05:36:19;99856.50;;;19.66;100.00
41202;BME280;26936;50.524;8.684;2023-08-20T05:38:44;99865.00;;;19.60;100.00
41202;BME280;26936;50.524;8.684;2023-08-20T05:41:09;99871.84;;;19.68;100.00
41202;BME280;26936;50.524;8.684;2023-08-20T05:43:34;99878.56;;;19.65;100.00
41202;BME280;26936;50.524;8.684;2023-08-20T05:46:02;99873.78;;;19.82;100.00
41202;BME280;26936;50.524;8.684;2023-08-20T05:48:27;99872.91;;;19.96;100.00
41202;BME280;26936;50.524;8.684;2023-08-20T05:50:52;99880.34;;;20.14;100.00
41202;BME280;26936;50.524;8.684;2023-08-20T05:53:17;99880.31;;;20.40;100.00
41202;BME280;26936;50.524;8.684;2023-08-20T05:55:43;99877.75;;;20.42;100.00
41202;BME280;26936;50.524;8.684;2023-08-20T05:58:08;99880.09;;;20.43;100.00
41202;BME280;26936;50.524;8.684;2023-08-20T06:00:33;99882.91;;;20.69;100.00
41202;BME280;26936;50.524;8.684;2023-08-20T06:02:59;99892.97;;;20.59;100.00
41202;BME280;26936;50.524;8.684;2023-08-20T06:05:24;99895.13;;;20.69;100.00
41202;BME280;26936;50.524;8.684;2023-08-20T06:07:49;99903.34;;;20.56;100.00
41202;BME280;26936;50.524;8.684;2023-08-20T06:10:15;99900.25;;;20.60;100.00
41202;BME280;26936;50.524;8.684;2023-08-20T06:12:40;99903.81;;;20.49;100.00
41202;BME280;26936;50.524;8.684;2023-08-20T06:15:06;99897.31;;;20.49;100.00
41202;BME280;26936;50.524;8.684;2023-08-20T06:17:31;99891.94;;;20.62;100.00
41202;BME280;26936;50.524;8.684;2023-08-20T06:19:56;99892.75;;;20.68;100.00
41202;BME280;26936;50.524;8.684;2023-08-20T06:22:22;99904.03;;;20.77;100.00
41202;BME280;26936;50.524;8.684;2023-08-20T06:24:47;99900.72;;;20.89;100.00
41202;BME280;26936;50.524;8.684;2023-08-20T06:27:12;99904.09;;;20.88;100.00
41202;BME280;26936;50.524;8.684;2023-08-20T06:29:37;99888.66;;;21.11;100.00
41202;BME280;26936;50.524;8.684;2023-08-20T06:32:04;99900.16;;;21.22;100.00
41202;BME280;26936;50.524;8.684;2023-08-20T06:34:29;99894.94;;;21.20;100.00
41202;BME280;26936;50.524;8.684;2023-08-20T06:36:54;99900.75;;;21.42;100.00
41202;BME280;26936;50.524;8.684;2023-08-20T06:39:20;99896.91;;;21.57;100.00
41202;BME280;26936;50.524;8.684;2023-08-20T06:41:45;99896.91;;;21.57;100.00
41202;BME280;26936;50.524;8.684;2023-08-20T06:44:11;99905.75;;;21.53;100.00
41202;BME280;26936;50.524;8.684;2023-08-20T06:46:36;99904.78;;;21.73;100.00
41202;BME280;26936;50.524;8.684;2023-08-20T06:49:02;99896.22;;;21.84;100.00
41202;BME280;26936;50.524;8.684;2023-08-20T06:51:28;99896.50;;;21.86;100.00
41202;BME280;26936;50.524;8.684;2023-08-20T06:53:53;99902.78;;;22.06;100.00
41202;BME280;26936;50.524;8.684;2023-08-20T06:56:19;99898.34;;;22.05;100.00
41202;BME280;26936;50.524;8.684;2023-08-20T06:58:46;99909.06;;;22.10;100.00
41202;BME280;26936;50.524;8.684;2023-08-20T07:01:11;99904.13;;;22.22;100.00
41202;BME280;26936;50.524;8.684;2023-08-20T07:03:39;99911.66;;;22.08;100.00
41202;BME280;26936;50.524;8.684;2023-08-20T07:06:05;99906.72;;;22.14;100.00
41202;BME280;26936;50.524;8.684;2023-08-20T07:08:30;99913.22;;;22.04;100.00
41202;BME280;26936;50.524;8.684;2023-08-20T07:10:56;99909.53;;;21.98;100.00
41202;BME280;26936;50.524;8.684;2023-08-20T07:13:22;99913.75;;;22.08;100.00
41202;BME280;26936;50.524;8.684;2023-08-20T07:15:47;99908.53;;;22.12;100.00
41202;BME280;26936;50.524;8.684;2023-08-20T07:18:12;99912.69;;;22.00;100.00
41202;BME280;26936;50.524;8.684;2023-08-20T07:20:42;99908.00;;;22.08;100.00
41202;BME280;26936;50.524;8.684;2023-08-20T07:23:08;99917.66;;;22.16;100.00
41202;BME280;26936;50.524;8.684;2023-08-20T07:25:35;99920.03;;;22.12;100.00
41202;BME280;26936;50.524;8.684;2023-08-20T07:28:01;99922.63;;;22.21;100.00
41202;BME280;26936;50.524;8.684;2023-08-20T07:30:27;99911.41;;;22.34;100.00
41202;BME280;26936;50.524;8.684;2023-08-20T07:32:53;99910.13;;;22.46;100.00
41202;BME280;26936;50.524;8.684;2023-08-20T07:35:18;99912.22;;;22.51;100.00
41202;BME280;26936;50.524;8.684;2023-08-20T07:37:43;99914.81;;;22.43;100.00
41202;BME280;26936;50.524;8.684;2023-08-20T07:40:09;99913.53;;;22.44;100.00
41202;BME280;26936;50.524;8.684;2023-08-20T07:42:36;99908.81;;;22.36;100.00
41202;BME280;26936;50.524;8.684;2023-08-20T07:45:01;99907.78;;;22.44;100.00
41202;BME280;26936;50.524;8.684;2023-08-20T07:47:27;99908.84;;;22.58;100.00
41202;BME280;26936;50.524;8.684;2023-08-20T07:49:54;99908.56;;;22.67;100.00
41202;BME280;26936;50.524;8.684;2023-08-20T07:52:19;99910.91;;;22.79;100.00
41202;BME280;26936;50.524;8.684;2023-08-20T07:54:44;99914.81;;;22.99;100.00
41202;BME280;26936;50.524;8.684;2023-08-20T07:57:10;99922.09;;;23.05;100.00
41202;BME280;26936;50.524;8.684;2023-08-20T07:59:35;99927.78;;;23.22;100.00
41202;BME280;26936;50.524;8.684;2023-08-20T08:02:00;99922.53;;;23.37;100.00
41202;BME280;26936;50.524;8.684;2023-08-20T08:04:26;99924.94;;;23.33;100.00
41202;BME280;26936;50.524;8.684;2023-08-20T08:06:52;99928.31;;;23.26;100.00
41202;BME280;26936;50.524;8.684;2023-08-20T08:09:27;99912.56;;;23.49;100.00
41202;BME280;26936;50.524;8.684;2023-08-20T08:11:52;99909.97;;;23.45;100.00
41202;BME280;26936;50.524;8.684;2023-08-20T08:14:18;99915.94;;;23.53;100.00
41202;BME280;26936;50.524;8.684;2023-08-20T08:16:45;99910.06;;;23.80;100.00
41202;BME280;26936;50.524;8.684;2023-08-20T08:19:10;99907.69;;;24.31;100.00
41202;BME280;26936;50.524;8.684;2023-08-20T08:21:35;99916.81;;;24.64;100.00
41202;BME280;26936;50.524;8.684;2023-08-20T08:24:00;99918.97;;;24.58;100.00
41202;BME280;26936;50.524;8.684;2023-08-20T08:26:26;99914.69;;;24.70;100.00
41202;BME280;26936;50.524;8.684;2023-08-20T08:28:51;99914.81;;;24.83;100.00
41202;BME280;26936;50.524;8.684;2023-08-20T08:31:16;99911.25;;;24.72;100.00
41202;BME280;26936;50.524;8.684;2023-08-20T08:33:41;99912.78;;;24.78;100.00
41202;BME280;26936;50.524;8.684;2023-08-20T08:36:07;99912.00;;;25.26;100.00
41202;BME280;26936;50.524;8.684;2023-08-20T08:38:32;99904.06;;;25.37;98.01
41202;BME280;26936;50.524;8.684;2023-08-20T08:40:58;99894.34;;;25.59;97.86
41202;BME280;26936;50.524;8.684;2023-08-20T08:43:26;99889.13;;;25.58;98.63
41202;BME280;26936;50.524;8.684;2023-08-20T08:45:55;99899.34;;;25.77;97.11
41202;BME280;26936;50.524;8.684;2023-08-20T08:48:20;99896.81;;;25.68;97.66
41202;BME280;26936;50.524;8.684;2023-08-20T08:50:46;99895.34;;;25.62;97.58
41202;BME280;26936;50.524;8.684;2023-08-20T08:53:13;99898.47;;;25.45;97.13
41202;BME280;26936;50.524;8.684;2023-08-20T08:55:38;99900.06;;;25.16;99.58
41202;BME280;26936;50.524;8.684;2023-08-20T08:58:04;99897.69;;;25.20;99.70
41202;BME280;26936;50.524;8.684;2023-08-20T09:00:29;99900.47;;;25.26;100.00
41202;BME280;26936;50.524;8.684;2023-08-20T09:02:56;99902.25;;;25.34;96.98
41202;BME280;26936;50.524;8.684;2023-08-20T09:05:21;99905.44;;;25.07;99.25
41202;BME280;26936;50.524;8.684;2023-08-20T09:07:47;99916.91;;;25.36;98.42
41202;BME280;26936;50.524;8.684;2023-08-20T09:10:19;99910.69;;;25.51;96.17
41202;BME280;26936;50.524;8.684;2023-08-20T09:12:47;99908.13;;;25.48;97.08
41202;BME280;26936;50.524;8.684;2023-08-20T09:15:12;99909.88;;;25.32;98.01
41202;BME280;26936;50.524;8.684;2023-08-20T09:17:38;99920.16;;;25.52;98.06
41202;BME280;26936;50.524;8.684;2023-08-20T09:20:04;99903.94;;;25.67;94.29
41202;BME280;26936;50.524;8.684;2023-08-20T09:22:29;99919.34;;;25.51;96.15
41202;BME280;26936;50.524;8.684;2023-08-20T09:24:56;99914.13;;;25.68;96.90
41202;BME280;26936;50.524;8.684;2023-08-20T09:27:22;99908.00;;;25.77;94.95
41202;BME280;26936;50.524;8.684;2023-08-20T09:29:50;99903.03;;;25.78;95.20
41202;BME280;26936;50.524;8.684;2023-08-20T09:34:42;99909.78;;;26.17;94.71
41202;BME280;26936;50.524;8.684;2023-08-20T09:37:08;99917.28;;;26.07;95.56
41202;BME280;26936;50.524;8.684;2023-08-20T09:39:34;99915.44;;;26.10;94.94
41202;BME280;26936;50.524;8.684;2023-08-20T09:42:01;99910.72;;;25.88;95.26
41202;BME280;26936;50.524;8.684;2023-08-20T09:44:32;99912.00;;;26.11;94.15
41202;BME280;26936;50.524;8.684;2023-08-20T09:46:58;99916.59;;;26.20;92.74
41202;BME280;26936;50.524;8.684;2023-08-20T09:49:29;99913.94;;;26.22;91.00
41202;BME280;26936;50.524;8.684;2023-08-20T09:51:57;99915.41;;;26.28;90.92
41202;BME280;26936;50.524;8.684;2023-08-20T09:57:06;99905.59;;;26.50;88.81
41202;BME280;26936;50.524;8.684;2023-08-20T09:59:32;99902.38;;;26.72;84.30
41202;BME280;26936;50.524;8.684;2023-08-20T10:02:01;99911.59;;;26.52;85.62
41202;BME280;26936;50.524;8.684;2023-08-20T10:04:26;99912.63;;;26.86;85.28
41202;BME280;26936;50.524;8.684;2023-08-20T10:06:53;99911.28;;;26.74;85.79
41202;BME280;26936;50.524;8.684;2023-08-20T10:09:20;99906.63;;;26.97;85.67
41202;BME280;26936;50.524;8.684;2023-08-20T10:11:46;99901.97;;;26.94;82.77
41202;BME280;26936;50.524;8.684;2023-08-20T10:14:12;99902.19;;;26.96;84.92
41202;BME280;26936;50.524;8.684;2023-08-20T10:16:38;99903.09;;;27.17;85.74
41202;BME280;26936;50.524;8.684;2023-08-20T10:19:05;99898.53;;;27.22;85.61
41202;BME280;26936;50.524;8.684;2023-08-20T10:21:32;99897.63;;;27.01;86.30
41202;BME280;26936;50.524;8.684;2023-08-20T10:24:03;99893.41;;;27.02;87.07
41202;BME280;26936;50.524;8.684;2023-08-20T10:26:28;99906.03;;;26.86;87.10
41202;BME280;26936;50.524;8.684;2023-08-20T10:31:57;99894.88;;;26.63;88.25
41202;BME280;26936;50.524;8.684;2023-08-20T10:34:36;99896.50;;;26.91;89.47
41202;BME280;26936;50.524;8.684;2023-08-20T10:37:15;99892.31;;;27.18;85.33
41202;BME280;26936;50.524;8.684;2023-08-20T10:39:40;99888.53;;;27.23;85.05
41202;BME280;26936;50.524;8.684;2023-08-20T10:45:08;99883.66;;;27.31;84.69
41202;BME280;26936;50.524;8.684;2023-08-20T10:47:43;99890.56;;;27.28;82.94
41202;BME280;26936;50.524;8.684;2023-08-20T10:50:16;99893.56;;;27.35;79.28
41202;BME280;26936;50.524;8.684;2023-08-20T10:52:48;99884.44;;;27.31;81.59
41202;BME280;26936;50.524;8.684;2023-08-20T10:55:14;99888.72;;;27.64;81.67
41202;BME280;26936;50.524;8.684;2023-08-20T10:57:40;99886.88;;;27.53;82.95
41202;BME280;26936;50.524;8.684;2023-08-20T11:00:06;99890.94;;;27.84;82.51
41202;BME280;26936;50.524;8.684;2023-08-20T11:02:39;99894.63;;;27.71;81.32
41202;BME280;26936;50.524;8.684;2023-08-20T11:05:16;99900.50;;;27.79;81.13
41202;BME280;26936;50.524;8.684;2023-08-20T11:07:42;99896.75;;;27.58;79.94
41202;BME280;26936;50.524;8.684;2023-08-20T11:10:08;99890.44;;;27.46;79.95
41202;BME280;26936;50.524;8.684;2023-08-20T11:12:33;99889.31;;;27.36;80.78
41202;BME280;26936;50.524;8.684;2023-08-20T11:15:02;99889.75;;;27.53;79.28
41202;BME280;26936;50.524;8.684;2023-08-20T11:17:28;99886.41;;;27.49;79.14
41202;BME280;26936;50.524;8.684;2023-08-20T11:19:54;99888.88;;;27.58;79.09
41202;BME280;26936;50.524;8.684;2023-08-20T11:22:19;99893.53;;;27.61;77.39
41202;BME280;26936;50.524;8.684;2023-08-20T11:24:44;99888.63;;;27.69;75.97
41202;BME280;26936;50.524;8.684;2023-08-20T11:27:10;99887.19;;;28.10;76.27
41202;BME280;26936;50.524;8.684;2023-08-20T11:29:35;99877.97;;;28.11;75.36
41202;BME280;26936;50.524;8.684;2023-08-20T11:32:01;99881.50;;;28.17;75.70
41202;BME280;26936;50.524;8.684;2023-08-20T11:34:28;99880.16;;;28.18;77.02
41202;BME280;26936;50.524;8.684;2023-08-20T11:36:54;99886.44;;;28.09;74.90
41202;BME280;26936;50.524;8.684;2023-08-20T11:39:19;99881.44;;;28.30;73.17
41202;BME280;26936;50.524;8.684;2023-08-20T11:41:45;99881.69;;;28.32;72.75
41202;BME280;26936;50.524;8.684;2023-08-20T11:44:18;99876.00;;;28.27;72.98
41202;BME280;26936;50.524;8.684;2023-08-20T11:46:44;99881.69;;;28.32;72.52
41202;BME280;26936;50.524;8.684;2023-08-20T11:49:10;99883.94;;;28.47;72.67
41202;BME280;26936;50.524;8.684;2023-08-20T11:54:07;99883.25;;;28.54;68.63
41202;BME280;26936;50.524;8.684;2023-08-20T11:56:34;99877.94;;;28.65;66.81
41202;BME280;26936;50.524;8.684;2023-08-20T11:59:00;99878.38;;;28.69;67.47
41202;BME280;26936;50.524;8.684;2023-08-20T12:01:30;99875.97;;;28.81;64.03
41202;BME280;26936;50.524;8.684;2023-08-20T12:04:06;99875.31;;;28.75;65.13
41202;BME280;26936;50.524;8.684;2023-08-20T12:06:34;99860.69;;;28.80;64.45
41202;BME280;26936;50.524;8.684;2023-08-20T12:09:00;99874.72;;;28.97;64.85
41202;BME280;26936;50.524;8.684;2023-08-20T12:11:30;99868.81;;;28.82;67.10
41202;BME280;26936;50.524;8.684;2023-08-20T12:13:55;99870.47;;;28.98;67.57
41202;BME280;26936;50.524;8.684;2023-08-20T12:16:24;99863.41;;;29.35;66.09
41202;BME280;26936;50.524;8.684;2023-08-20T12:18:52;99867.13;;;29.14;65.94
41202;BME280;26936;50.524;8.684;2023-08-20T12:21:18;99858.03;;;29.10;66.74
41202;BME280;26936;50.524;8.684;2023-08-20T12:23:43;99855.63;;;29.01;64.52
41202;BME280;26936;50.524;8.684;2023-08-20T12:26:08;99869.44;;;28.88;65.58
41202;BME280;26936;50.524;8.684;2023-08-20T12:28:34;99858.31;;;28.99;64.72
41202;BME280;26936;50.524;8.684;2023-08-20T12:31:00;99866.03;;;28.97;64.41
41202;BME280;26936;50.524;8.684;2023-08-20T12:33:25;99856.34;;;29.22;63.99
41202;BME280;26936;50.524;8.684;2023-08-20T12:35:54;99854.47;;;29.25;64.12
41202;BME280;26936;50.524;8.684;2023-08-20T12:38:20;99854.94;;;29.44;63.33
41202;BME280;26936;50.524;8.684;2023-08-20T12:40:45;99853.75;;;29.40;61.27
41202;BME280;26936;50.524;8.684;2023-08-20T12:43:11;99853.13;;;29.34;61.45
41202;BME280;26936;50.524;8.684;2023-08-20T12:45:39;99844.41;;;29.26;61.46
41202;BME280;26936;50.524;8.684;2023-08-20T12:48:05;99846.94;;;29.30;60.06
41202;BME280;26936;50.524;8.684;2023-08-20T12:50:32;99854.09;;;29.29;58.10
41202;BME280;26936;50.524;8.684;2023-08-20T12:52:57;99846.00;;;29.35;59.07
41202;BME280;26936;50.524;8.684;2023-08-20T12:55:23;99841.25;;;29.60;58.60
41202;BME280;26936;50.524;8.684;2023-08-20T12:57:58;99840.41;;;29.72;58.29
41202;BME280;26936;50.524;8.684;2023-08-20T13:00:25;99838.72;;;29.92;56.68
41202;BME280;26936;50.524;8.684;2023-08-20T13:02:51;99832.81;;;30.35;55.01